createdAt,value
2023-01-04T00:03:03.940Z,28.90
2023-01-04T00:08:11.413Z,40.60
2023-01-04T00:13:18.592Z,30.80
2023-01-04T00:18:25.943Z,30.00
2023-01-04T00:23:33.167Z,27.60
2023-01-04T00:28:40.626Z,24.30
2023-01-04T00:33:47.844Z,25.00
2023-01-04T00:39:10.848Z,17.80
2023-01-04T00:44:21.559Z,22.40
2023-01-04T00:49:30.355Z,24.70
2023-01-04T00:54:37.610Z,24.60
2023-01-04T00:59:44.794Z,26.50
2023-01-04T01:04:52.004Z,28.50
2023-01-04T01:09:59.258Z,23.00
2023-01-04T01:15:07.689Z,21.60
2023-01-04T01:20:15.040Z,21.70
2023-01-04T01:25:22.220Z,21.80
2023-01-04T01:30:29.506Z,28.40
2023-01-04T01:35:37.710Z,26.80
2023-01-04T01:40:46.400Z,25.50
2023-01-04T01:45:57.509Z,26.40
2023-01-04T01:51:06.977Z,24.40
2023-01-04T01:56:17.539Z,27.00
2023-01-04T02:01:25.219Z,30.70
2023-01-04T02:06:37.796Z,31.30
2023-01-04T02:11:45.010Z,39.40
2023-01-04T02:17:06.608Z,38.90
2023-01-04T02:22:55.653Z,33.90
2023-01-04T02:28:08.000Z,34.20
2023-01-04T02:33:28.812Z,27.40
2023-01-04T02:38:46.594Z,29.60
2023-01-04T02:44:18.481Z,26.00
2023-01-04T02:49:43.116Z,32.20
2023-01-04T02:54:51.828Z,37.80
2023-01-04T03:00:11.823Z,34.30
2023-01-04T03:05:47.399Z,40.30
2023-01-04T03:11:01.041Z,30.10
2023-01-04T03:16:12.547Z,36.00
2023-01-04T03:21:22.579Z,34.80
2023-01-04T03:26:50.413Z,34.00
2023-01-04T03:32:18.099Z,38.70
2023-01-04T03:37:32.799Z,30.90
2023-01-04T03:43:06.205Z,35.30
2023-01-04T03:48:30.445Z,39.40
2023-01-04T03:53:43.688Z,47.70
2023-01-04T03:58:51.634Z,46.80
2023-01-04T04:09:23.061Z,33.40
2023-01-04T04:14:30.813Z,48.20
2023-01-04T04:19:37.935Z,40.60
2023-01-04T04:24:45.054Z,40.60
2023-01-04T04:29:52.528Z,43.50
2023-01-04T04:34:59.687Z,45.20
2023-01-04T04:40:08.439Z,48.60
2023-01-04T04:45:15.794Z,40.40
2023-01-04T04:50:23.000Z,35.80
2023-01-04T04:55:30.272Z,33.10
2023-01-04T05:00:37.543Z,39.40
2023-01-04T05:05:45.164Z,39.90
2023-01-04T05:10:52.434Z,46.30
2023-01-04T05:15:59.758Z,36.20
2023-01-04T05:21:07.161Z,40.00
2023-01-04T05:26:14.445Z,48.60
2023-01-04T05:31:22.123Z,48.20
2023-01-04T05:41:55.264Z,48.10
2023-01-04T05:47:02.888Z,44.60
2023-01-04T05:52:11.663Z,37.00
2023-01-04T05:57:18.939Z,39.10
2023-01-04T06:02:29.043Z,52.30
2023-01-04T06:07:36.607Z,49.80
2023-01-04T06:12:44.495Z,50.70
2023-01-04T06:17:51.854Z,46.60
2023-01-04T06:22:59.199Z,40.80
2023-01-04T06:28:06.879Z,53.50
2023-01-04T06:33:14.123Z,39.60
2023-01-04T06:38:21.564Z,68.60
2023-01-04T06:43:28.788Z,69.90
2023-01-04T06:48:36.085Z,70.40
2023-01-04T06:53:43.476Z,63.70
2023-01-04T06:58:52.914Z,58.80
2023-01-04T07:04:00.759Z,53.40
2023-01-04T07:09:09.731Z,64.10
2023-01-04T07:14:18.600Z,79.50
2023-01-04T07:19:26.237Z,67.40
2023-01-04T07:24:33.659Z,69.60
2023-01-04T07:29:44.427Z,70.70
2023-01-04T07:34:58.783Z,69.10
2023-01-04T07:47:08.286Z,72.30
2023-01-04T07:52:17.546Z,75.40
2023-01-04T07:57:26.480Z,70.30
2023-01-04T08:02:34.100Z,58.80
2023-01-04T08:07:42.271Z,60.80
2023-01-04T08:12:49.632Z,51.90
2023-01-04T08:17:58.834Z,62.60
2023-01-04T08:23:09.267Z,58.80
2023-01-04T08:28:16.894Z,58.90
2023-01-04T08:33:26.496Z,64.10
2023-01-04T08:39:01.897Z,66.50
2023-01-04T08:44:01.066Z,61.30
2023-01-04T08:49:08.346Z,62.10
2023-01-04T08:54:16.232Z,57.60
2023-01-04T09:04:29.267Z,59.30
2023-01-04T09:09:36.477Z,64.70
2023-01-04T09:14:43.736Z,75.50
2023-01-04T09:19:51.010Z,58.00
2023-01-04T09:24:58.316Z,60.50
2023-01-04T09:30:06.026Z,63.80
2023-01-04T09:35:13.514Z,62.90
2023-01-04T09:40:29.029Z,49.40
2023-01-04T09:45:36.364Z,55.60
2023-01-04T09:50:55.075Z,43.90
2023-01-04T09:56:09.956Z,47.80
2023-01-04T10:01:20.301Z,47.20
2023-01-04T10:06:27.758Z,47.40
2023-01-04T10:11:56.437Z,50.40
2023-01-04T10:22:27.695Z,42.60
2023-01-04T10:27:47.573Z,41.80
2023-01-04T10:33:01.164Z,45.00
2023-01-04T10:38:17.045Z,40.50
2023-01-04T10:44:10.988Z,39.80
2023-01-04T10:56:25.407Z,41.70
2023-01-04T11:01:39.521Z,52.60
2023-01-04T11:06:54.112Z,35.10
2023-01-04T11:12:02.279Z,40.20
2023-01-04T11:17:12.361Z,47.50
2023-01-04T11:22:26.159Z,36.30
2023-01-04T11:27:40.301Z,31.40
2023-01-04T11:32:53.951Z,37.60
2023-01-04T11:38:14.156Z,30.70
2023-01-04T11:43:23.294Z,30.00
2023-01-04T11:48:42.294Z,35.90
2023-01-04T11:54:00.461Z,31.10
2023-01-04T11:59:17.960Z,38.10
2023-01-04T12:04:35.594Z,31.00
2023-01-04T12:09:43.225Z,40.20
2023-01-04T12:14:52.170Z,35.30
2023-01-04T12:20:03.176Z,26.60
2023-01-04T12:25:23.270Z,33.70
2023-01-04T12:30:46.149Z,31.90
2023-01-04T12:36:07.119Z,30.60
2023-01-04T12:41:15.089Z,33.50
2023-01-04T12:47:02.212Z,30.00
2023-01-04T12:53:02.341Z,20.80
2023-01-04T12:59:23.700Z,25.00
2023-01-04T13:04:40.888Z,26.20
2023-01-04T13:09:58.911Z,24.90
2023-01-04T13:15:19.322Z,23.00
2023-01-04T13:20:30.858Z,26.20
2023-01-04T13:25:38.394Z,27.50
2023-01-04T13:30:47.274Z,21.80
2023-01-04T13:36:11.865Z,20.90
2023-01-04T13:41:24.468Z,28.10
2023-01-04T13:46:32.587Z,24.00
2023-01-04T13:51:40.021Z,20.70
2023-01-04T13:56:55.010Z,27.30
2023-01-04T14:02:02.944Z,20.70
2023-01-04T14:07:13.589Z,22.00
2023-01-04T14:12:24.054Z,19.00
2023-01-04T14:17:41.700Z,21.90
2023-01-04T14:22:56.489Z,20.40
2023-01-04T14:28:33.704Z,16.50
2023-01-04T14:33:46.192Z,16.80
2023-01-04T14:39:09.561Z,13.60
2023-01-04T14:44:20.800Z,12.30
2023-01-04T14:49:28.676Z,11.00
2023-01-04T14:54:39.271Z,14.20
2023-01-04T14:59:47.037Z,13.90
2023-01-04T15:04:54.319Z,11.00
2023-01-04T15:10:03.133Z,12.90
2023-01-04T15:15:12.965Z,9.90
2023-01-04T15:20:20.368Z,10.90
2023-01-04T15:25:29.931Z,14.00
2023-01-04T15:30:37.608Z,10.80
2023-01-04T15:35:44.951Z,11.80
2023-01-04T15:41:00.754Z,11.80
2023-01-04T15:46:11.558Z,12.00
2023-01-04T15:51:24.261Z,13.20
2023-01-04T15:56:31.697Z,10.80
2023-01-04T16:01:43.459Z,12.10
2023-01-04T16:06:51.174Z,9.60
2023-01-04T16:12:16.380Z,9.50
2023-01-04T16:17:24.607Z,10.10
2023-01-04T16:22:31.835Z,9.80
2023-01-04T16:27:39.649Z,12.70
2023-01-04T16:32:47.262Z,13.70
2023-01-04T16:37:54.612Z,7.90
2023-01-04T16:43:03.063Z,6.80
2023-01-04T16:48:16.570Z,9.00
2023-01-04T16:53:25.664Z,11.10
2023-01-04T16:58:33.664Z,6.50
2023-01-04T17:08:47.874Z,6.30
2023-01-04T17:13:55.486Z,7.70
2023-01-04T17:19:03.104Z,8.90
2023-01-04T17:24:11.217Z,5.70
2023-01-04T17:34:24.318Z,8.40
2023-01-04T17:39:33.199Z,5.10
2023-01-04T17:44:40.562Z,6.80
2023-01-04T17:49:47.849Z,7.00
2023-01-04T17:54:55.076Z,7.10
2023-01-04T18:00:02.334Z,7.30
2023-01-04T18:05:13.202Z,6.90
2023-01-04T18:10:40.789Z,5.10
2023-01-04T18:16:18.514Z,10.20
2023-01-04T18:21:28.925Z,5.40
2023-01-04T18:26:53.514Z,6.20
2023-01-04T18:32:04.313Z,6.20
2023-01-04T18:37:11.765Z,5.10
2023-01-04T18:42:19.143Z,8.00
2023-01-04T18:47:26.945Z,6.70
2023-01-04T18:52:35.690Z,5.30
2023-01-04T18:57:43.720Z,5.40
2023-01-04T19:02:50.911Z,6.10
2023-01-04T19:07:58.345Z,5.90
2023-01-04T19:13:05.556Z,7.90
2023-01-04T19:18:13.736Z,7.50
2023-01-04T19:23:21.107Z,7.70
2023-01-04T19:28:28.336Z,6.40
2023-01-04T19:33:36.283Z,5.50
2023-01-04T19:38:43.759Z,7.30
2023-01-04T19:43:51.073Z,10.40
2023-01-04T19:48:58.555Z,5.60
2023-01-04T19:54:07.883Z,8.70
2023-01-04T19:59:15.575Z,9.10
2023-01-04T20:04:22.892Z,6.60
2023-01-04T20:09:33.601Z,5.20
2023-01-04T20:14:42.869Z,10.30
2023-01-04T20:19:50.223Z,6.40
2023-01-04T20:24:57.505Z,6.80
2023-01-04T20:30:05.050Z,4.90
2023-01-04T20:35:13.141Z,4.60
2023-01-04T20:45:26.232Z,5.40
2023-01-04T20:50:35.057Z,6.40
2023-01-04T20:55:44.391Z,8.20
2023-01-04T21:00:51.753Z,4.70
2023-01-04T21:06:02.155Z,5.30
2023-01-04T21:11:10.487Z,4.90
2023-01-04T21:16:17.695Z,3.30
2023-01-04T21:21:24.954Z,3.40
2023-01-04T21:26:32.195Z,5.60
2023-01-04T21:31:39.573Z,8.60
2023-01-04T21:36:46.916Z,4.20
2023-01-04T21:41:57.035Z,3.30
2023-01-04T21:47:04.218Z,3.60
2023-01-04T21:52:11.796Z,4.90
2023-01-04T21:57:19.244Z,3.10
2023-01-04T22:02:26.418Z,5.00
2023-01-04T22:07:33.900Z,6.10
2023-01-04T22:12:42.036Z,4.50
2023-01-04T22:17:49.396Z,8.50
2023-01-04T22:22:56.565Z,9.70
2023-01-04T22:28:04.205Z,3.20
2023-01-04T22:33:11.526Z,2.60
2023-01-04T22:38:18.658Z,4.50
2023-01-04T22:43:25.805Z,2.80
2023-01-04T22:48:33.038Z,6.40
2023-01-04T22:53:41.391Z,3.40
2023-01-04T22:58:53.044Z,4.60
2023-01-04T23:04:02.725Z,5.50
2023-01-04T23:09:13.199Z,8.00
2023-01-04T23:14:20.658Z,2.60
2023-01-04T23:19:28.812Z,4.10
2023-01-04T23:24:38.013Z,5.70
2023-01-04T23:29:45.373Z,1.40
2023-01-04T23:34:54.835Z,3.40
2023-01-04T23:40:01.977Z,1.50
2023-01-04T23:45:10.946Z,3.20
2023-01-04T23:50:18.208Z,1.70
2023-01-04T23:55:25.345Z,1.10
